createdAt,value
2022-12-04T00:00:46.365Z,89.70
2022-12-04T00:06:08.120Z,82.87
2022-12-04T00:11:12.011Z,76.70
2022-12-04T00:16:18.131Z,80.77
2022-12-04T00:21:22.103Z,79.37
2022-12-04T00:26:27.297Z,81.33
2022-12-04T00:31:31.302Z,87.67
2022-12-04T00:36:34.513Z,85.07
2022-12-04T00:41:37.318Z,81.73
2022-12-04T00:46:40.469Z,79.70
2022-12-04T00:51:43.466Z,76.53
2022-12-04T00:56:47.070Z,80.90
2022-12-04T01:01:50.003Z,78.73
2022-12-04T01:06:53.066Z,71.27
2022-12-04T01:11:56.023Z,77.10
2022-12-04T01:16:59.272Z,70.90
2022-12-04T01:22:03.863Z,75.70
2022-12-04T01:27:06.725Z,75.50
2022-12-04T01:32:09.760Z,73.63
2022-12-04T01:37:12.973Z,77.23
2022-12-04T01:42:16.310Z,72.73
2022-12-04T01:47:19.201Z,71.97
2022-12-04T01:52:23.108Z,70.47
2022-12-04T01:57:28.895Z,73.60
2022-12-04T02:02:37.838Z,72.23
2022-12-04T02:07:41.750Z,66.30
2022-12-04T02:13:10.586Z,70.30
2022-12-04T02:18:36.145Z,74.53
2022-12-04T02:23:57.454Z,67.30
2022-12-04T02:29:22.096Z,66.83
2022-12-04T02:34:35.497Z,72.40
2022-12-04T02:39:43.806Z,65.97
2022-12-04T02:44:53.284Z,68.50
2022-12-04T02:49:59.326Z,74.17
2022-12-04T02:55:25.779Z,72.63
2022-12-04T03:00:30.549Z,61.17
2022-12-04T03:05:39.201Z,70.23
2022-12-04T03:10:53.152Z,64.73
2022-12-04T03:16:09.006Z,70.90
2022-12-04T03:21:17.126Z,69.80
2022-12-04T03:26:38.908Z,67.97
2022-12-04T03:31:45.985Z,68.57
2022-12-04T03:37:21.542Z,70.47
2022-12-04T03:42:28.221Z,64.70
2022-12-04T03:47:46.894Z,71.00
2022-12-04T03:53:12.563Z,67.70
2022-12-04T03:58:20.650Z,69.53
2022-12-04T04:03:26.932Z,66.90
2022-12-04T04:08:35.281Z,73.87
2022-12-04T04:14:01.606Z,72.70
2022-12-04T04:19:23.269Z,75.43
2022-12-04T04:24:43.863Z,71.50
2022-12-04T04:29:52.229Z,64.20
2022-12-04T04:35:06.862Z,72.07
2022-12-04T04:40:24.408Z,73.17
2022-12-04T04:46:06.581Z,69.60
2022-12-04T04:51:10.396Z,72.00
2022-12-04T04:56:13.671Z,73.57
2022-12-04T05:01:18.793Z,69.67
2022-12-04T05:06:21.819Z,74.00
2022-12-04T05:11:25.003Z,71.03
2022-12-04T05:16:27.963Z,67.97
2022-12-04T05:21:31.433Z,68.83
2022-12-04T05:26:34.222Z,70.47
2022-12-04T05:31:37.010Z,67.23
2022-12-04T05:36:41.156Z,71.13
2022-12-04T05:41:44.181Z,68.10
2022-12-04T05:46:47.370Z,68.20
2022-12-04T05:51:51.067Z,66.83
2022-12-04T05:56:53.964Z,66.47
2022-12-04T06:01:57.042Z,150.23
2022-12-04T06:06:59.969Z,197.97
2022-12-04T06:12:03.009Z,104.00
2022-12-04T06:17:05.993Z,132.93
2022-12-04T06:22:08.743Z,95.40
2022-12-04T06:27:27.185Z,63.63
2022-12-04T06:32:30.774Z,72.30
2022-12-04T06:37:34.074Z,92.67
2022-12-04T06:42:37.130Z,67.70
2022-12-04T06:47:40.318Z,67.17
2022-12-04T06:52:43.188Z,69.27
2022-12-04T06:57:46.263Z,70.50
2022-12-04T07:02:49.574Z,73.60
2022-12-04T07:07:52.912Z,72.83
2022-12-04T07:12:55.808Z,69.70
2022-12-04T07:17:58.751Z,74.20
2022-12-04T07:23:07.029Z,67.67
2022-12-04T07:28:10.344Z,85.73
2022-12-04T07:33:13.869Z,102.13
2022-12-04T07:38:16.795Z,98.87
2022-12-04T07:43:19.740Z,83.07
2022-12-04T07:48:22.818Z,78.13
2022-12-04T07:53:25.998Z,73.37
2022-12-04T07:58:29.120Z,72.10
2022-12-04T08:03:32.234Z,75.63
2022-12-04T08:08:36.270Z,94.63
2022-12-04T08:13:39.272Z,92.57
2022-12-04T08:18:47.066Z,96.47
2022-12-04T08:23:52.013Z,89.00
2022-12-04T08:28:56.408Z,89.73
2022-12-04T08:34:04.252Z,105.90
2022-12-04T08:39:07.376Z,96.73
2022-12-04T08:44:10.672Z,126.20
2022-12-04T08:49:14.011Z,86.80
2022-12-04T08:54:16.954Z,82.10
2022-12-04T08:59:19.918Z,80.80
2022-12-04T09:04:23.278Z,79.03
2022-12-04T09:09:26.595Z,74.87
2022-12-04T09:14:29.641Z,75.40
2022-12-04T09:19:32.775Z,66.80
2022-12-04T09:24:35.993Z,66.70
2022-12-04T09:29:41.220Z,73.67
2022-12-04T09:34:48.249Z,75.87
2022-12-04T09:39:54.850Z,79.80
2022-12-04T09:45:12.951Z,75.73
2022-12-04T09:50:23.113Z,92.27
2022-12-04T09:55:34.035Z,66.57
2022-12-04T10:00:40.684Z,73.03
2022-12-04T10:05:53.179Z,71.63
2022-12-04T10:11:05.408Z,74.07
2022-12-04T10:16:18.027Z,66.20
2022-12-04T10:22:18.472Z,68.70
2022-12-04T10:27:24.597Z,66.10
2022-12-04T10:32:32.179Z,70.77
2022-12-04T10:37:40.967Z,84.17
2022-12-04T10:42:58.626Z,77.13
2022-12-04T10:48:02.333Z,70.83
2022-12-04T10:53:09.435Z,66.13
2022-12-04T10:58:17.697Z,64.13
2022-12-04T11:03:28.943Z,66.07
2022-12-04T11:08:43.677Z,64.87
2022-12-04T11:13:46.635Z,66.30
2022-12-04T11:18:50.979Z,70.63
2022-12-04T11:23:54.089Z,66.93
2022-12-04T11:28:59.125Z,64.60
2022-12-04T11:34:06.020Z,60.53
2022-12-04T11:39:16.097Z,67.63
2022-12-04T11:44:35.203Z,63.77
2022-12-04T11:49:43.588Z,58.80
2022-12-04T11:55:29.044Z,61.40
2022-12-04T12:00:33.442Z,71.07
2022-12-04T12:05:53.848Z,59.60
2022-12-04T12:11:04.430Z,65.27
2022-12-04T12:16:34.970Z,66.70
2022-12-04T12:21:44.624Z,82.30
2022-12-04T12:26:58.183Z,66.20
2022-12-04T12:32:20.430Z,79.27
2022-12-04T12:37:50.623Z,81.17
2022-12-04T12:43:01.569Z,63.07
2022-12-04T12:48:32.825Z,70.50
2022-12-04T12:53:39.850Z,70.60
2022-12-04T12:58:54.163Z,206.10
2022-12-04T13:03:58.984Z,146.73
2022-12-04T13:09:30.286Z,76.90
2022-12-04T13:14:33.977Z,71.03
2022-12-04T13:19:43.924Z,63.70
2022-12-04T13:25:08.738Z,65.67
2022-12-04T13:30:22.139Z,69.87
2022-12-04T13:35:28.040Z,66.73
2022-12-04T13:40:48.038Z,62.27
2022-12-04T13:45:52.546Z,66.80
2022-12-04T13:51:07.819Z,63.13
2022-12-04T13:56:31.040Z,66.37
2022-12-04T14:01:41.776Z,61.73
2022-12-04T14:06:51.461Z,61.43
2022-12-04T14:12:05.626Z,69.40
2022-12-04T14:17:28.201Z,57.83
2022-12-04T14:22:38.094Z,60.50
2022-12-04T14:27:41.143Z,57.57
2022-12-04T14:32:44.759Z,58.33
2022-12-04T14:38:02.788Z,54.87
2022-12-04T14:43:06.084Z,54.40
2022-12-04T14:48:17.361Z,56.50
2022-12-04T14:53:39.212Z,60.67
2022-12-04T14:58:42.928Z,66.67
2022-12-04T15:03:48.349Z,55.93
2022-12-04T15:08:53.895Z,61.93
2022-12-04T15:14:05.537Z,62.13
2022-12-04T15:19:19.058Z,56.27
2022-12-04T15:24:25.272Z,59.30
2022-12-04T15:29:31.141Z,55.23
2022-12-04T15:34:41.334Z,59.97
2022-12-04T15:39:45.780Z,62.30
2022-12-04T15:45:13.341Z,55.80
2022-12-04T15:50:16.697Z,66.13
2022-12-04T15:55:22.468Z,61.83
2022-12-04T16:00:34.800Z,63.30
2022-12-04T16:05:38.299Z,67.07
2022-12-04T16:10:41.324Z,58.53
2022-12-04T16:15:44.475Z,62.27
2022-12-04T16:20:47.941Z,64.40
2022-12-04T16:25:53.704Z,66.53
2022-12-04T16:31:00.222Z,65.67
2022-12-04T16:36:04.643Z,64.50
2022-12-04T16:41:14.025Z,72.83
2022-12-04T16:46:17.208Z,65.87
2022-12-04T16:51:22.592Z,75.17
2022-12-04T16:56:25.733Z,75.43
2022-12-04T17:01:34.809Z,70.87
2022-12-04T17:06:37.788Z,62.10
2022-12-04T17:11:40.946Z,60.83
2022-12-04T17:16:45.398Z,57.73
2022-12-04T17:21:48.653Z,61.03
2022-12-04T17:26:55.676Z,56.07
2022-12-04T17:31:58.792Z,58.67
2022-12-04T17:37:02.624Z,65.13
2022-12-04T17:42:05.899Z,56.70
2022-12-04T17:47:12.545Z,60.90
2022-12-04T17:52:15.614Z,58.90
2022-12-04T17:57:19.584Z,61.07
2022-12-04T18:02:23.111Z,60.63
2022-12-04T18:07:26.875Z,64.10
2022-12-04T18:12:30.282Z,62.27
2022-12-04T18:17:33.479Z,63.60
2022-12-04T18:22:36.736Z,54.23
2022-12-04T18:27:42.011Z,68.30
2022-12-04T18:32:45.555Z,64.93
2022-12-04T18:37:49.078Z,67.90
2022-12-04T18:42:52.792Z,57.03
2022-12-04T18:47:55.881Z,60.30
2022-12-04T18:53:03.372Z,58.80
2022-12-04T18:58:07.652Z,61.57
2022-12-04T19:03:12.322Z,74.30
2022-12-04T19:08:16.121Z,58.20
2022-12-04T19:13:19.479Z,54.60
2022-12-04T19:18:22.856Z,63.10
2022-12-04T19:23:26.006Z,66.37
2022-12-04T19:28:29.928Z,77.87
2022-12-04T19:33:33.271Z,58.57
2022-12-04T19:38:36.594Z,58.50
2022-12-04T19:43:42.376Z,59.27
2022-12-04T19:48:50.225Z,57.80
2022-12-04T19:53:54.856Z,54.00
2022-12-04T19:59:00.417Z,59.77
2022-12-04T20:04:06.143Z,56.17
2022-12-04T20:09:12.892Z,55.97
2022-12-04T20:14:16.083Z,56.00
2022-12-04T20:19:19.579Z,55.33
2022-12-04T20:24:26.640Z,60.37
2022-12-04T20:29:30.034Z,50.00
2022-12-04T20:34:43.112Z,55.93
2022-12-04T20:39:47.000Z,51.43
2022-12-04T20:44:50.440Z,53.20
2022-12-04T20:49:53.722Z,51.50
2022-12-04T20:54:57.182Z,52.67
2022-12-04T21:00:00.189Z,54.73
2022-12-04T21:05:03.395Z,48.13
2022-12-04T21:10:07.411Z,74.67
2022-12-04T21:15:29.060Z,49.37
2022-12-04T21:20:31.923Z,53.33
2022-12-04T21:25:36.639Z,49.73
2022-12-04T21:30:39.719Z,46.37
2022-12-04T21:35:42.681Z,45.57
2022-12-04T21:40:48.924Z,43.50
2022-12-04T21:46:09.648Z,49.00
2022-12-04T21:51:39.872Z,44.17
2022-12-04T21:56:36.576Z,44.00
2022-12-04T22:01:40.211Z,45.10
2022-12-04T22:06:43.465Z,38.67
2022-12-04T22:11:46.652Z,40.10
2022-12-04T22:16:53.251Z,37.80
2022-12-04T22:21:56.604Z,39.00
2022-12-04T22:27:00.065Z,37.30
2022-12-04T22:32:03.271Z,40.87
2022-12-04T22:37:06.375Z,35.20
2022-12-04T22:42:09.587Z,37.87
2022-12-04T22:47:12.523Z,42.40
2022-12-04T22:52:15.842Z,36.30
2022-12-04T22:57:22.301Z,38.17
2022-12-04T23:02:25.495Z,37.87
2022-12-04T23:07:28.944Z,42.10
2022-12-04T23:12:32.578Z,36.73
2022-12-04T23:17:35.639Z,36.87
2022-12-04T23:22:38.728Z,42.17
2022-12-04T23:27:41.486Z,36.93
2022-12-04T23:32:44.465Z,37.17
2022-12-04T23:37:47.359Z,37.13
2022-12-04T23:42:50.355Z,33.30
2022-12-04T23:47:54.183Z,33.87
2022-12-04T23:53:00.110Z,38.23
2022-12-04T23:58:03.150Z,36.93
